Time,TemperatureF,DewpointF,PressureIn,WindDirection,WindDirectionDegrees,WindSpeedMPH,WindSpeedGustMPH,Humidity,HourlyPrecipIn,Conditions,Clouds,dailyrainin,SoftwareType,DateUTC
2013-05-06 00:00:00,47.2,43.8,24.19,ENE,68,0.0,6.0,88,0.00,,,0.00,VWS V13.01,2013-05-06 04:00:00,
2013-05-06 01:00:00,46.9,43.8,24.15,ENE,68,0.0,5.0,89,0.00,,,0.00,VWS V13.01,2013-05-06 05:00:00,
2013-05-06 02:00:00,47.4,44.3,24.13,ENE,68,0.0,5.0,89,0.00,,,0.00,VWS V13.01,2013-05-06 06:00:00,
2013-05-06 03:00:00,47.3,44.2,24.13,ENE,68,0.0,2.0,89,0.00,,,0.00,VWS V13.01,2013-05-06 07:00:00,
2013-05-06 04:00:00,47.4,44.3,24.16,ENE,68,0.0,0.0,89,0.00,,,0.00,VWS V13.01,2013-05-06 08:00:00,
2013-05-06 05:00:00,47.5,44.4,24.17,ENE,68,0.0,0.0,89,0.00,,,0.00,VWS V13.01,2013-05-06 09:00:00,
2013-05-06 06:00:00,47.6,44.2,24.17,ENE,68,0.0,0.0,88,0.00,,,0.00,VWS V13.01,2013-05-06 10:00:00,
2013-05-06 07:00:00,47.7,44.0,24.17,ENE,68,0.0,0.0,87,0.00,,,0.00,VWS V13.01,2013-05-06 11:00:00,
2013-05-06 08:00:00,50.2,44.9,24.17,ENE,68,0.0,3.0,82,0.00,,,0.00,VWS V13.01,2013-05-06 12:00:00,
2013-05-06 09:00:00,52.9,45.9,24.17,East,90,0.0,6.0,77,0.00,,,0.00,VWS V13.01,2013-05-06 13:00:00,
2013-05-06 10:00:00,54.1,47.4,24.16,ENE,68,1.0,9.0,78,0.00,,,0.00,VWS V13.01,2013-05-06 14:00:00,
2013-05-06 11:00:00,56.3,47.0,24.17,East,90,1.0,9.0,71,0.00,,,0.00,VWS V13.01,2013-05-06 15:00:00,
2013-05-06 12:00:00,59.8,48.8,24.16,East,90,1.0,6.0,67,0.00,,,0.00,VWS V13.01,2013-05-06 16:00:00,
2013-05-06 13:00:00,61.1,51.6,24.14,ENE,68,1.0,7.0,71,0.00,,,0.00,VWS V13.01,2013-05-06 17:00:00,
2013-05-06 14:00:00,62.6,52.7,24.19,ENE,68,1.0,9.0,70,0.00,,,0.00,VWS V13.01,2013-05-06 18:00:00,
2013-05-06 15:00:00,63.1,53.6,26.83,East,90,2.0,11.0,71,0.00,,,0.00,VWS V13.01,2013-05-06 19:00:00,
2013-05-06 16:00:00,62.9,53.4,26.83,East,90,2.0,10.0,71,0.00,,,0.00,VWS V13.01,2013-05-06 20:00:00,
2013-05-06 17:00:00,61.7,52.2,26.83,ENE,68,2.0,11.0,71,0.00,,,0.00,VWS V13.01,2013-05-06 21:00:00,
2013-05-06 18:00:00,61.4,51.9,26.83,ENE,68,1.0,8.0,71,0.00,,,0.00,VWS V13.01,2013-05-06 22:00:00,
2013-05-06 19:00:00,59.8,52.2,26.83,ENE,68,1.0,8.0,76,0.00,,,0.00,VWS V13.01,2013-05-06 23:00:00,
2013-05-06 20:00:00,57.1,50.3,26.83,ENE,68,0.0,7.0,78,0.00,,,0.00,VWS V13.01,2013-05-07 00:00:00,
2013-05-06 21:00:00,54.8,49.7,26.83,ENE,68,0.0,3.0,83,0.00,,,0.00,VWS V13.01,2013-05-07 01:00:00,
2013-05-06 22:00:00,53.7,49.3,26.83,ENE,68,0.0,5.0,85,0.00,,,0.00,VWS V13.01,2013-05-07 02:00:00,
2013-05-06 23:00:00,52.4,48.7,26.83,ENE,68,0.0,1.0,87,0.00,,,0.00,VWS V13.01,2013-05-07 03:00:00,